Home > Products > Valid Products > FWO

000
SHUS65 KGJT 192015
FWOGJT

DAILY FIRE WEATHER OBSERVATION
NATIONAL WEATHER SERVICE GRAND JUNCTION CO
212 PM MDT FRI SEP 19 2014

STATE OF THE WEATHER (W)               1
DRY BULB TEMPERATURE                   86   DEGREES FAHRENHEIT
RELATIVE HUMIDITY (RH)                 21   PERCENT
LIGHTNING ACTIVITY LEVEL
  (LAL - MIDNIGHT TO 2 PM)             1
WIND DIRECTION                         C    DEGREES (C IF CALM)
WIND SPEED                             0    MPH
MAX TEMP (2 PM - 2 PM)                 87   DEGREES FAHRENHEIT
MIN TEMP (2 PM - 2 PM)                 53   DEGREES FAHRENHEIT
MAX RH (2 PM - 2 PM)                   64   PERCENT
MIN RH (2 PM - 2 PM)                   21   PERCENT
PCPN DURATION                          0.0  HOURS
PCPN AMT (2 PM - 2 PM)                 0.0  INCHES
LAL (2 PM - 2 PM)                      1

$$

METAR KGJT 191953Z VRB05KT 10SM CLR 30/05 A3000 RMK AO2 SLP090
      T03000050




000
SHUS65 KGJT 192015
FWOGJT

DAILY FIRE WEATHER OBSERVATION
NATIONAL WEATHER SERVICE GRAND JUNCTION CO
212 PM MDT FRI SEP 19 2014

STATE OF THE WEATHER (W)               1
DRY BULB TEMPERATURE                   86   DEGREES FAHRENHEIT
RELATIVE HUMIDITY (RH)                 21   PERCENT
LIGHTNING ACTIVITY LEVEL
  (LAL - MIDNIGHT TO 2 PM)             1
WIND DIRECTION                         C    DEGREES (C IF CALM)
WIND SPEED                             0    MPH
MAX TEMP (2 PM - 2 PM)                 87   DEGREES FAHRENHEIT
MIN TEMP (2 PM - 2 PM)                 53   DEGREES FAHRENHEIT
MAX RH (2 PM - 2 PM)                   64   PERCENT
MIN RH (2 PM - 2 PM)                   21   PERCENT
PCPN DURATION                          0.0  HOURS
PCPN AMT (2 PM - 2 PM)                 0.0  INCHES
LAL (2 PM - 2 PM)                      1

$$

METAR KGJT 191953Z VRB05KT 10SM CLR 30/05 A3000 RMK AO2 SLP090
      T03000050





000
SHUS65 KGJT 182015
FWOGJT

DAILY FIRE WEATHER OBSERVATION
NATIONAL WEATHER SERVICE GRAND JUNCTION CO
212 PM MDT THU SEP 18 2014

STATE OF THE WEATHER (W)               0
DRY BULB TEMPERATURE                   84   DEGREES FAHRENHEIT
RELATIVE HUMIDITY (RH)                 25   PERCENT
LIGHTNING ACTIVITY LEVEL
  (LAL - MIDNIGHT TO 2 PM)             1
WIND DIRECTION                         270  DEGREES (C IF CALM)
WIND SPEED                             3    MPH
MAX TEMP (2 PM - 2 PM)                 87   DEGREES FAHRENHEIT
MIN TEMP (2 PM - 2 PM)                 56   DEGREES FAHRENHEIT
MAX RH (2 PM - 2 PM)                   53   PERCENT
MIN RH (2 PM - 2 PM)                   18   PERCENT
PCPN DURATION                          0.0  HOURS
PCPN AMT (2 PM - 2 PM)                 0.0  INCHES
LAL (2 PM - 2 PM)                      1

$$

METAR KGJT 181953Z 25003KT 10SM CLR 29/07 A2996 RMK AO2 SLP074
      T02890067




000
SHUS65 KGJT 182015
FWOGJT

DAILY FIRE WEATHER OBSERVATION
NATIONAL WEATHER SERVICE GRAND JUNCTION CO
212 PM MDT THU SEP 18 2014

STATE OF THE WEATHER (W)               0
DRY BULB TEMPERATURE                   84   DEGREES FAHRENHEIT
RELATIVE HUMIDITY (RH)                 25   PERCENT
LIGHTNING ACTIVITY LEVEL
  (LAL - MIDNIGHT TO 2 PM)             1
WIND DIRECTION                         270  DEGREES (C IF CALM)
WIND SPEED                             3    MPH
MAX TEMP (2 PM - 2 PM)                 87   DEGREES FAHRENHEIT
MIN TEMP (2 PM - 2 PM)                 56   DEGREES FAHRENHEIT
MAX RH (2 PM - 2 PM)                   53   PERCENT
MIN RH (2 PM - 2 PM)                   18   PERCENT
PCPN DURATION                          0.0  HOURS
PCPN AMT (2 PM - 2 PM)                 0.0  INCHES
LAL (2 PM - 2 PM)                      1

$$

METAR KGJT 181953Z 25003KT 10SM CLR 29/07 A2996 RMK AO2 SLP074
      T02890067





000
SHUS65 KGJT 172015
FWOGJT

DAILY FIRE WEATHER OBSERVATION
NATIONAL WEATHER SERVICE GRAND JUNCTION CO
212 PM MDT WED SEP 17 2014

STATE OF THE WEATHER (W)               0
DRY BULB TEMPERATURE                   81   DEGREES FAHRENHEIT
RELATIVE HUMIDITY (RH)                 23   PERCENT
LIGHTNING ACTIVITY LEVEL
  (LAL - MIDNIGHT TO 2 PM)             1
WIND DIRECTION                         225  DEGREES (C IF CALM)
WIND SPEED                             5    MPH
MAX TEMP (2 PM - 2 PM)                 86   DEGREES FAHRENHEIT
MIN TEMP (2 PM - 2 PM)                 55   DEGREES FAHRENHEIT
MAX RH (2 PM - 2 PM)                   60   PERCENT
MIN RH (2 PM - 2 PM)                   23   PERCENT
PCPN DURATION                          0.0  HOURS
PCPN AMT (2 PM - 2 PM)                 0.0  INCHES
LAL (2 PM - 2 PM)                      1

$$

METAR KGJT 171953Z 23004KT 10SM CLR 27/04 A3004 RMK AO2 SLP107
      T02720044




000
SHUS65 KGJT 172015
FWOGJT

DAILY FIRE WEATHER OBSERVATION
NATIONAL WEATHER SERVICE GRAND JUNCTION CO
212 PM MDT WED SEP 17 2014

STATE OF THE WEATHER (W)               0
DRY BULB TEMPERATURE                   81   DEGREES FAHRENHEIT
RELATIVE HUMIDITY (RH)                 23   PERCENT
LIGHTNING ACTIVITY LEVEL
  (LAL - MIDNIGHT TO 2 PM)             1
WIND DIRECTION                         225  DEGREES (C IF CALM)
WIND SPEED                             5    MPH
MAX TEMP (2 PM - 2 PM)                 86   DEGREES FAHRENHEIT
MIN TEMP (2 PM - 2 PM)                 55   DEGREES FAHRENHEIT
MAX RH (2 PM - 2 PM)                   60   PERCENT
MIN RH (2 PM - 2 PM)                   23   PERCENT
PCPN DURATION                          0.0  HOURS
PCPN AMT (2 PM - 2 PM)                 0.0  INCHES
LAL (2 PM - 2 PM)                      1

$$

METAR KGJT 171953Z 23004KT 10SM CLR 27/04 A3004 RMK AO2 SLP107
      T02720044





    US Dept of Commerce
    National Oceanic and Atmospheric Administration
    National Weather Service
    1325 East West Highway
    Silver Spring, MD 20910
    Page Author: NWS Internet Services Team
Disclaimer
Information Quality
Credits
Glossary
Privacy Policy
Freedom of Information Act (FOIA)
About Us
Career Opportunities